sensor_id;sensor_type;location;lat;lon;timestamp;pressure;altitude;pressure_sealevel;temperature;humidity
14818;BME280;7500;57.698;11.986;2022-09-09T00:01:47;101734.22;;;15.76;100.00
14818;BME280;7500;57.698;11.986;2022-09-09T00:04:24;101732.06;;;15.82;100.00
14818;BME280;7500;57.698;11.986;2022-09-09T00:07:00;101734.03;;;15.79;100.00
14818;BME280;7500;57.698;11.986;2022-09-09T00:09:30;101733.59;;;15.71;100.00
14818;BME280;7500;57.698;11.986;2022-09-09T00:12:01;101720.53;;;15.66;100.00
14818;BME280;7500;57.698;11.986;2022-09-09T00:14:39;101694.97;;;15.48;100.00
14818;BME280;7500;57.698;11.986;2022-09-09T00:17:12;101706.81;;;15.58;100.00
14818;BME280;7500;57.698;11.986;2022-09-09T00:19:46;101708.13;;;15.51;100.00
14818;BME280;7500;57.698;11.986;2022-09-09T00:22:18;101685.00;;;15.36;100.00
14818;BME280;7500;57.698;11.986;2022-09-09T00:24:48;101718.31;;;15.43;100.00
14818;BME280;7500;57.698;11.986;2022-09-09T00:27:29;101691.19;;;15.52;100.00
14818;BME280;7500;57.698;11.986;2022-09-09T00:30:13;101698.47;;;15.49;100.00
14818;BME280;7500;57.698;11.986;2022-09-09T00:32:44;101702.53;;;15.56;100.00
14818;BME280;7500;57.698;11.986;2022-09-09T00:35:17;101693.69;;;15.55;100.00
14818;BME280;7500;57.698;11.986;2022-09-09T00:37:46;101690.59;;;15.47;100.00
14818;BME280;7500;57.698;11.986;2022-09-09T00:40:22;101683.72;;;15.43;100.00
14818;BME280;7500;57.698;11.986;2022-09-09T00:42:54;101691.53;;;15.46;100.00
14818;BME280;7500;57.698;11.986;2022-09-09T00:45:43;101688.78;;;15.48;100.00
14818;BME280;7500;57.698;11.986;2022-09-09T00:48:13;101688.28;;;15.41;100.00
14818;BME280;7500;57.698;11.986;2022-09-09T00:50:46;101681.50;;;15.51;100.00
14818;BME280;7500;57.698;11.986;2022-09-09T00:53:24;101681.66;;;15.48;100.00
14818;BME280;7500;57.698;11.986;2022-09-09T00:56:01;101676.50;;;15.45;100.00
14818;BME280;7500;57.698;11.986;2022-09-09T00:58:30;101682.44;;;15.50;100.00
14818;BME280;7500;57.698;11.986;2022-09-09T01:01:02;101679.34;;;15.58;100.00
14818;BME280;7500;57.698;11.986;2022-09-09T01:03:35;101668.00;;;15.54;100.00
14818;BME280;7500;57.698;11.986;2022-09-09T01:06:12;101680.22;;;15.58;100.00
14818;BME280;7500;57.698;11.986;2022-09-09T01:08:52;101666.97;;;15.41;100.00
14818;BME280;7500;57.698;11.986;2022-09-09T01:11:22;101665.78;;;15.31;100.00
14818;BME280;7500;57.698;11.986;2022-09-09T01:13:58;101661.06;;;15.36;100.00
14818;BME280;7500;57.698;11.986;2022-09-09T01:16:29;101656.69;;;15.35;100.00
14818;BME280;7500;57.698;11.986;2022-09-09T01:18:58;101661.41;;;15.30;100.00
14818;BME280;7500;57.698;11.986;2022-09-09T01:21:34;101648.03;;;15.32;100.00
14818;BME280;7500;57.698;11.986;2022-09-09T01:24:18;101650.16;;;15.25;100.00
14818;BME280;7500;57.698;11.986;2022-09-09T01:26:48;101626.09;;;15.11;100.00
14818;BME280;7500;57.698;11.986;2022-09-09T01:29:18;101646.72;;;15.23;100.00
14818;BME280;7500;57.698;11.986;2022-09-09T01:31:54;101645.00;;;15.22;100.00
14818;BME280;7500;57.698;11.986;2022-09-09T01:34:22;101643.19;;;15.23;100.00
14818;BME280;7500;57.698;11.986;2022-09-09T01:36:53;101647.06;;;15.33;100.00
14818;BME280;7500;57.698;11.986;2022-09-09T01:39:23;101649.63;;;15.34;100.00
14818;BME280;7500;57.698;11.986;2022-09-09T01:41:53;101646.81;;;15.37;100.00
14818;BME280;7500;57.698;11.986;2022-09-09T01:44:20;101637.81;;;15.40;100.00
14818;BME280;7500;57.698;11.986;2022-09-09T01:46:48;101633.66;;;15.34;100.00
14818;BME280;7500;57.698;11.986;2022-09-09T01:49:16;101635.50;;;15.34;100.00
14818;BME280;7500;57.698;11.986;2022-09-09T01:51:43;101641.47;;;15.37;100.00
14818;BME280;7500;57.698;11.986;2022-09-09T01:54:10;101581.56;;;14.99;100.00
14818;BME280;7500;57.698;11.986;2022-09-09T01:56:46;101625.97;;;15.30;100.00
14818;BME280;7500;57.698;11.986;2022-09-09T01:59:24;101614.69;;;15.25;100.00
14818;BME280;7500;57.698;11.986;2022-09-09T02:02:02;101620.94;;;15.24;100.00
14818;BME280;7500;57.698;11.986;2022-09-09T02:04:38;101620.88;;;15.25;100.00
14818;BME280;7500;57.698;11.986;2022-09-09T02:07:14;101624.25;;;15.29;100.00
14818;BME280;7500;57.698;11.986;2022-09-09T02:09:52;101622.78;;;15.39;100.00
14818;BME280;7500;57.698;11.986;2022-09-09T02:12:25;101610.31;;;15.39;100.00
14818;BME280;7500;57.698;11.986;2022-09-09T02:15:00;101617.72;;;15.34;100.00
14818;BME280;7500;57.698;11.986;2022-09-09T02:17:31;101615.56;;;15.25;100.00
14818;BME280;7500;57.698;11.986;2022-09-09T02:20:05;101608.28;;;15.29;100.00
14818;BME280;7500;57.698;11.986;2022-09-09T02:22:35;101609.91;;;15.31;100.00
14818;BME280;7500;57.698;11.986;2022-09-09T02:25:08;101618.59;;;15.35;100.00
14818;BME280;7500;57.698;11.986;2022-09-09T02:27:37;101607.22;;;15.16;100.00
14818;BME280;7500;57.698;11.986;2022-09-09T02:30:07;101608.44;;;15.10;100.00
14818;BME280;7500;57.698;11.986;2022-09-09T02:32:35;101612.28;;;15.20;100.00
14818;BME280;7500;57.698;11.986;2022-09-09T02:35:06;101603.78;;;15.14;100.00
14818;BME280;7500;57.698;11.986;2022-09-09T02:37:38;101604.16;;;15.08;100.00
14818;BME280;7500;57.698;11.986;2022-09-09T02:40:06;101598.13;;;14.89;100.00
14818;BME280;7500;57.698;11.986;2022-09-09T02:42:38;101596.34;;;14.89;100.00
14818;BME280;7500;57.698;11.986;2022-09-09T02:45:09;101587.41;;;14.90;100.00
14818;BME280;7500;57.698;11.986;2022-09-09T02:47:39;101592.38;;;14.96;100.00
14818;BME280;7500;57.698;11.986;2022-09-09T02:50:13;101585.94;;;15.00;100.00
14818;BME280;7500;57.698;11.986;2022-09-09T02:52:57;101588.53;;;15.02;100.00
14818;BME280;7500;57.698;11.986;2022-09-09T02:55:35;101582.16;;;15.04;100.00
14818;BME280;7500;57.698;11.986;2022-09-09T02:58:06;101587.31;;;15.07;100.00
14818;BME280;7500;57.698;11.986;2022-09-09T03:00:35;101583.38;;;14.99;100.00
14818;BME280;7500;57.698;11.986;2022-09-09T03:03:03;101545.88;;;14.72;100.00
14818;BME280;7500;57.698;11.986;2022-09-09T03:05:30;101581.06;;;14.93;100.00
14818;BME280;7500;57.698;11.986;2022-09-09T03:07:57;101571.63;;;15.03;100.00
14818;BME280;7500;57.698;11.986;2022-09-09T03:10:24;101568.88;;;15.04;100.00
14818;BME280;7500;57.698;11.986;2022-09-09T03:12:51;101570.25;;;15.11;100.00
14818;BME280;7500;57.698;11.986;2022-09-09T03:15:17;101565.59;;;15.15;100.00
14818;BME280;7500;57.698;11.986;2022-09-09T03:17:46;101564.16;;;15.09;100.00
14818;BME280;7500;57.698;11.986;2022-09-09T03:20:13;101561.22;;;14.98;100.00
14818;BME280;7500;57.698;11.986;2022-09-09T03:22:40;101565.72;;;14.98;100.00
14818;BME280;7500;57.698;11.986;2022-09-09T03:25:07;101557.81;;;14.96;100.00
14818;BME280;7500;57.698;11.986;2022-09-09T03:27:34;101563.91;;;14.98;100.00
14818;BME280;7500;57.698;11.986;2022-09-09T03:30:01;101558.19;;;14.90;100.00
14818;BME280;7500;57.698;11.986;2022-09-09T03:32:29;101562.38;;;14.94;100.00
14818;BME280;7500;57.698;11.986;2022-09-09T03:34:58;101558.94;;;14.92;100.00
14818;BME280;7500;57.698;11.986;2022-09-09T03:37:25;101554.47;;;14.93;100.00
14818;BME280;7500;57.698;11.986;2022-09-09T03:39:52;101550.09;;;14.92;100.00
14818;BME280;7500;57.698;11.986;2022-09-09T03:42:20;101551.75;;;14.94;100.00
14818;BME280;7500;57.698;11.986;2022-09-09T03:44:47;101547.16;;;14.96;100.00
14818;BME280;7500;57.698;11.986;2022-09-09T03:47:16;101540.06;;;14.97;100.00
14818;BME280;7500;57.698;11.986;2022-09-09T03:49:43;101541.00;;;14.96;100.00
14818;BME280;7500;57.698;11.986;2022-09-09T03:52:11;101541.19;;;14.93;100.00
14818;BME280;7500;57.698;11.986;2022-09-09T03:54:38;101541.00;;;14.96;100.00
14818;BME280;7500;57.698;11.986;2022-09-09T03:57:08;101530.63;;;14.91;100.00
14818;BME280;7500;57.698;11.986;2022-09-09T03:59:35;101525.22;;;14.93;100.00
14818;BME280;7500;57.698;11.986;2022-09-09T04:02:03;101520.94;;;14.90;100.00
14818;BME280;7500;57.698;11.986;2022-09-09T04:04:30;101522.38;;;14.96;100.00
14818;BME280;7500;57.698;11.986;2022-09-09T04:06:57;101519.22;;;14.89;100.00
14818;BME280;7500;57.698;11.986;2022-09-09T04:09:25;101521.97;;;14.88;100.00
14818;BME280;7500;57.698;11.986;2022-09-09T04:11:52;101515.19;;;14.82;100.00
14818;BME280;7500;57.698;11.986;2022-09-09T04:14:20;101515.97;;;14.84;100.00
14818;BME280;7500;57.698;11.986;2022-09-09T04:16:47;101517.69;;;14.85;100.00
14818;BME280;7500;57.698;11.986;2022-09-09T04:19:14;101513.91;;;14.89;100.00
14818;BME280;7500;57.698;11.986;2022-09-09T04:21:41;101515.69;;;14.89;100.00
14818;BME280;7500;57.698;11.986;2022-09-09T04:24:08;101500.34;;;14.94;100.00
14818;BME280;7500;57.698;11.986;2022-09-09T04:26:37;101505.00;;;14.90;100.00
14818;BME280;7500;57.698;11.986;2022-09-09T04:29:04;101501.00;;;14.97;100.00
14818;BME280;7500;57.698;11.986;2022-09-09T04:31:32;101500.94;;;14.99;100.00
14818;BME280;7500;57.698;11.986;2022-09-09T04:34:00;101497.25;;;15.01;100.00
14818;BME280;7500;57.698;11.986;2022-09-09T04:36:31;101496.75;;;14.95;100.00
14818;BME280;7500;57.698;11.986;2022-09-09T04:38:58;101491.91;;;15.01;100.00
14818;BME280;7500;57.698;11.986;2022-09-09T04:41:26;101481.09;;;15.04;100.00
14818;BME280;7500;57.698;11.986;2022-09-09T04:43:55;101491.50;;;15.09;100.00
14818;BME280;7500;57.698;11.986;2022-09-09T04:46:22;101487.97;;;15.08;100.00
14818;BME280;7500;57.698;11.986;2022-09-09T04:48:49;101459.63;;;14.93;100.00
14818;BME280;7500;57.698;11.986;2022-09-09T04:51:16;101481.34;;;15.15;100.00
14818;BME280;7500;57.698;11.986;2022-09-09T04:53:43;101482.28;;;15.14;100.00
14818;BME280;7500;57.698;11.986;2022-09-09T04:56:11;101484.00;;;15.15;100.00
14818;BME280;7500;57.698;11.986;2022-09-09T04:58:39;101479.81;;;15.11;100.00
14818;BME280;7500;57.698;11.986;2022-09-09T05:01:10;101492.75;;;15.17;100.00
14818;BME280;7500;57.698;11.986;2022-09-09T05:03:38;101486.84;;;15.28;100.00
14818;BME280;7500;57.698;11.986;2022-09-09T05:06:06;101479.44;;;15.33;100.00
14818;BME280;7500;57.698;11.986;2022-09-09T05:08:34;101468.81;;;15.33;100.00
14818;BME280;7500;57.698;11.986;2022-09-09T05:11:01;101481.56;;;15.42;100.00
14818;BME280;7500;57.698;11.986;2022-09-09T05:13:28;101485.84;;;15.44;100.00
14818;BME280;7500;57.698;11.986;2022-09-09T05:15:56;101488.69;;;15.41;100.00
14818;BME280;7500;57.698;11.986;2022-09-09T05:18:25;101484.75;;;15.33;100.00
14818;BME280;7500;57.698;11.986;2022-09-09T05:20:52;101481.66;;;15.40;100.00
14818;BME280;7500;57.698;11.986;2022-09-09T05:23:19;101475.06;;;15.32;100.00
14818;BME280;7500;57.698;11.986;2022-09-09T05:25:55;101480.88;;;15.38;100.00
14818;BME280;7500;57.698;11.986;2022-09-09T05:28:23;101471.09;;;15.39;100.00
14818;BME280;7500;57.698;11.986;2022-09-09T05:30:55;101470.63;;;15.46;100.00
14818;BME280;7500;57.698;11.986;2022-09-09T05:33:24;101473.78;;;15.53;100.00
14818;BME280;7500;57.698;11.986;2022-09-09T05:35:56;101477.78;;;15.46;100.00
14818;BME280;7500;57.698;11.986;2022-09-09T05:38:23;101472.34;;;15.47;100.00
14818;BME280;7500;57.698;11.986;2022-09-09T05:40:50;101480.06;;;15.52;100.00
14818;BME280;7500;57.698;11.986;2022-09-09T05:43:17;101476.84;;;15.61;100.00
14818;BME280;7500;57.698;11.986;2022-09-09T05:45:45;101482.28;;;15.73;100.00
14818;BME280;7500;57.698;11.986;2022-09-09T05:48:13;101484.34;;;15.68;100.00
14818;BME280;7500;57.698;11.986;2022-09-09T05:50:42;101481.16;;;15.63;100.00
14818;BME280;7500;57.698;11.986;2022-09-09T05:53:10;101483.81;;;15.63;100.00
14818;BME280;7500;57.698;11.986;2022-09-09T05:55:37;101493.28;;;15.67;100.00
14818;BME280;7500;57.698;11.986;2022-09-09T05:58:04;101485.50;;;15.64;100.00
14818;BME280;7500;57.698;11.986;2022-09-09T06:00:31;101492.16;;;15.71;100.00
14818;BME280;7500;57.698;11.986;2022-09-09T06:02:58;101489.59;;;15.70;100.00
14818;BME280;7500;57.698;11.986;2022-09-09T06:05:25;101487.06;;;15.82;100.00
14818;BME280;7500;57.698;11.986;2022-09-09T06:07:55;101480.00;;;15.81;100.00
14818;BME280;7500;57.698;11.986;2022-09-09T06:10:22;101481.72;;;15.82;100.00
14818;BME280;7500;57.698;11.986;2022-09-09T06:12:52;101487.53;;;15.88;100.00
14818;BME280;7500;57.698;11.986;2022-09-09T06:15:19;101486.75;;;15.86;100.00
14818;BME280;7500;57.698;11.986;2022-09-09T06:17:46;101484.38;;;15.82;100.00
14818;BME280;7500;57.698;11.986;2022-09-09T06:20:14;101488.00;;;15.81;100.00
14818;BME280;7500;57.698;11.986;2022-09-09T06:22:41;101496.56;;;15.86;100.00
14818;BME280;7500;57.698;11.986;2022-09-09T06:25:09;101490.94;;;15.90;100.00
14818;BME280;7500;57.698;11.986;2022-09-09T06:27:37;101486.38;;;15.92;100.00
14818;BME280;7500;57.698;11.986;2022-09-09T06:30:05;101488.03;;;15.95;100.00
14818;BME280;7500;57.698;11.986;2022-09-09T06:32:33;101482.28;;;16.01;100.00
14818;BME280;7500;57.698;11.986;2022-09-09T06:35:03;101484.69;;;16.05;100.00
14818;BME280;7500;57.698;11.986;2022-09-09T06:37:30;101488.97;;;16.08;100.00
14818;BME280;7500;57.698;11.986;2022-09-09T06:39:57;101478.22;;;16.09;100.00
14818;BME280;7500;57.698;11.986;2022-09-09T06:42:25;101472.03;;;16.09;100.00
14818;BME280;7500;57.698;11.986;2022-09-09T06:44:52;101475.38;;;16.12;100.00
14818;BME280;7500;57.698;11.986;2022-09-09T06:47:19;101471.53;;;16.16;100.00
14818;BME280;7500;57.698;11.986;2022-09-09T06:49:46;101471.34;;;16.19;100.00
14818;BME280;7500;57.698;11.986;2022-09-09T06:52:13;101473.75;;;16.24;100.00
14818;BME280;7500;57.698;11.986;2022-09-09T06:54:40;101470.03;;;16.12;100.00
14818;BME280;7500;57.698;11.986;2022-09-09T06:57:07;101473.25;;;16.17;100.00
14818;BME280;7500;57.698;11.986;2022-09-09T06:59:35;101470.31;;;16.22;100.00
14818;BME280;7500;57.698;11.986;2022-09-09T07:02:02;101471.84;;;16.26;100.00
14818;BME280;7500;57.698;11.986;2022-09-09T07:04:29;101470.69;;;16.30;100.00
14818;BME280;7500;57.698;11.986;2022-09-09T07:06:56;101467.34;;;16.26;100.00
14818;BME280;7500;57.698;11.986;2022-09-09T07:09:24;101459.09;;;16.31;100.00
14818;BME280;7500;57.698;11.986;2022-09-09T07:11:51;101470.44;;;16.34;100.00
14818;BME280;7500;57.698;11.986;2022-09-09T07:14:19;101441.19;;;16.19;100.00
14818;BME280;7500;57.698;11.986;2022-09-09T07:16:48;101466.13;;;16.32;100.00
14818;BME280;7500;57.698;11.986;2022-09-09T07:19:15;101452.16;;;16.42;100.00
14818;BME280;7500;57.698;11.986;2022-09-09T07:21:42;101456.31;;;16.46;100.00
14818;BME280;7500;57.698;11.986;2022-09-09T07:24:10;101466.50;;;16.54;100.00
14818;BME280;7500;57.698;11.986;2022-09-09T07:26:37;101468.09;;;16.56;100.00
14818;BME280;7500;57.698;11.986;2022-09-09T07:29:05;101450.38;;;16.55;100.00
14818;BME280;7500;57.698;11.986;2022-09-09T07:31:34;101459.91;;;16.59;100.00
14818;BME280;7500;57.698;11.986;2022-09-09T07:34:03;101470.38;;;16.62;100.00
14818;BME280;7500;57.698;11.986;2022-09-09T07:36:33;101458.75;;;16.63;100.00
14818;BME280;7500;57.698;11.986;2022-09-09T07:39:02;101466.66;;;16.65;100.00
14818;BME280;7500;57.698;11.986;2022-09-09T07:41:32;101462.72;;;16.70;100.00
14818;BME280;7500;57.698;11.986;2022-09-09T07:44:03;101469.09;;;16.68;100.00
14818;BME280;7500;57.698;11.986;2022-09-09T07:46:30;101460.06;;;16.70;100.00
14818;BME280;7500;57.698;11.986;2022-09-09T07:48:57;101460.72;;;16.74;100.00
14818;BME280;7500;57.698;11.986;2022-09-09T07:51:27;101462.34;;;16.76;100.00
14818;BME280;7500;57.698;11.986;2022-09-09T07:53:56;101398.34;;;16.36;100.00
14818;BME280;7500;57.698;11.986;2022-09-09T07:56:24;101456.13;;;16.76;100.00
14818;BME280;7500;57.698;11.986;2022-09-09T07:58:53;101454.53;;;16.73;100.00
14818;BME280;7500;57.698;11.986;2022-09-09T08:01:22;101467.47;;;16.79;100.00
14818;BME280;7500;57.698;11.986;2022-09-09T08:03:54;101462.78;;;16.83;100.00
14818;BME280;7500;57.698;11.986;2022-09-09T08:06:26;101459.72;;;16.89;100.00
14818;BME280;7500;57.698;11.986;2022-09-09T08:08:53;101458.38;;;16.96;100.00
14818;BME280;7500;57.698;11.986;2022-09-09T08:11:22;101457.41;;;16.97;100.00
14818;BME280;7500;57.698;11.986;2022-09-09T08:13:50;101460.41;;;17.04;100.00
14818;BME280;7500;57.698;11.986;2022-09-09T08:16:19;101460.19;;;17.07;100.00
14818;BME280;7500;57.698;11.986;2022-09-09T08:18:48;101454.56;;;17.12;100.00
14818;BME280;7500;57.698;11.986;2022-09-09T08:21:17;101460.34;;;17.18;100.00
14818;BME280;7500;57.698;11.986;2022-09-09T08:23:46;101460.16;;;17.21;100.00
14818;BME280;7500;57.698;11.986;2022-09-09T08:26:15;101436.09;;;17.09;100.00
14818;BME280;7500;57.698;11.986;2022-09-09T08:28:43;101451.53;;;17.30;100.00
14818;BME280;7500;57.698;11.986;2022-09-09T08:31:11;101463.00;;;17.32;100.00
14818;BME280;7500;57.698;11.986;2022-09-09T08:33:39;101467.53;;;17.30;100.00
14818;BME280;7500;57.698;11.986;2022-09-09T08:36:09;101452.47;;;17.29;100.00
14818;BME280;7500;57.698;11.986;2022-09-09T08:38:36;101457.28;;;17.24;100.00
14818;BME280;7500;57.698;11.986;2022-09-09T08:41:29;101455.34;;;17.26;100.00
14818;BME280;7500;57.698;11.986;2022-09-09T08:44:02;101457.81;;;17.29;100.00
14818;BME280;7500;57.698;11.986;2022-09-09T08:46:36;101456.16;;;17.53;100.00
14818;BME280;7500;57.698;11.986;2022-09-09T08:49:10;101456.16;;;17.41;100.00
14818;BME280;7500;57.698;11.986;2022-09-09T08:51:43;101475.91;;;17.38;100.00
14818;BME280;7500;57.698;11.986;2022-09-09T08:54:10;101457.41;;;17.35;100.00
14818;BME280;7500;57.698;11.986;2022-09-09T08:56:38;101462.34;;;17.41;100.00
14818;BME280;7500;57.698;11.986;2022-09-09T08:59:07;101447.06;;;17.43;100.00
14818;BME280;7500;57.698;11.986;2022-09-09T09:01:42;101454.34;;;17.41;100.00
14818;BME280;7500;57.698;11.986;2022-09-09T09:04:28;101467.38;;;17.46;100.00
14818;BME280;7500;57.698;11.986;2022-09-09T09:07:06;101467.06;;;17.50;100.00
14818;BME280;7500;57.698;11.986;2022-09-09T09:09:41;101460.63;;;17.53;100.00
14818;BME280;7500;57.698;11.986;2022-09-09T09:12:18;101460.44;;;17.56;100.00
14818;BME280;7500;57.698;11.986;2022-09-09T09:14:47;101462.25;;;17.55;100.00
14818;BME280;7500;57.698;11.986;2022-09-09T09:17:17;101450.63;;;17.56;100.00
14818;BME280;7500;57.698;11.986;2022-09-09T09:19:45;101455.44;;;17.64;100.00
14818;BME280;7500;57.698;11.986;2022-09-09T09:22:17;101467.72;;;17.66;100.00
14818;BME280;7500;57.698;11.986;2022-09-09T09:24:51;101467.72;;;17.66;100.00
14818;BME280;7500;57.698;11.986;2022-09-09T09:27:27;101447.09;;;17.68;100.00
14818;BME280;7500;57.698;11.986;2022-09-09T09:29:58;101461.19;;;17.70;100.00
14818;BME280;7500;57.698;11.986;2022-09-09T09:32:28;101455.63;;;17.73;100.00
14818;BME280;7500;57.698;11.986;2022-09-09T09:34:58;101451.38;;;17.71;100.00
14818;BME280;7500;57.698;11.986;2022-09-09T09:37:32;101452.13;;;17.73;100.00
14818;BME280;7500;57.698;11.986;2022-09-09T09:40:10;101446.66;;;17.74;100.00
14818;BME280;7500;57.698;11.986;2022-09-09T09:42:48;101450.84;;;17.78;100.00
14818;BME280;7500;57.698;11.986;2022-09-09T09:45:25;101446.44;;;17.77;100.00
14818;BME280;7500;57.698;11.986;2022-09-09T09:48:01;101450.19;;;17.87;100.00
14818;BME280;7500;57.698;11.986;2022-09-09T09:50:29;101419.00;;;17.75;100.00
14818;BME280;7500;57.698;11.986;2022-09-09T09:52:58;101444.44;;;17.93;100.00
14818;BME280;7500;57.698;11.986;2022-09-09T09:55:26;101420.50;;;17.79;100.00
14818;BME280;7500;57.698;11.986;2022-09-09T09:58:02;101444.94;;;17.86;100.00
14818;BME280;7500;57.698;11.986;2022-09-09T10:00:29;101445.47;;;17.91;100.00
14818;BME280;7500;57.698;11.986;2022-09-09T10:02:56;101447.31;;;17.90;100.00
14818;BME280;7500;57.698;11.986;2022-09-09T10:05:24;101441.97;;;17.90;100.00
14818;BME280;7500;57.698;11.986;2022-09-09T10:08:10;101439.31;;;17.90;100.00
14818;BME280;7500;57.698;11.986;2022-09-09T10:10:46;101450.94;;;17.89;100.00
14818;BME280;7500;57.698;11.986;2022-09-09T10:13:20;101451.38;;;17.83;100.00
14818;BME280;7500;57.698;11.986;2022-09-09T10:16:00;101454.91;;;17.84;100.00
14818;BME280;7500;57.698;11.986;2022-09-09T10:18:46;101453.22;;;17.83;100.00
14818;BME280;7500;57.698;11.986;2022-09-09T10:21:29;101450.63;;;17.81;100.00
14818;BME280;7500;57.698;11.986;2022-09-09T10:24:11;101453.84;;;17.74;100.00
14818;BME280;7500;57.698;11.986;2022-09-09T10:26:49;101457.34;;;17.74;100.00
14818;BME280;7500;57.698;11.986;2022-09-09T10:29:56;101444.41;;;17.68;100.00
14818;BME280;7500;57.698;11.986;2022-09-09T10:32:38;101446.03;;;17.58;100.00
14818;BME280;7500;57.698;11.986;2022-09-09T10:35:12;101460.63;;;17.53;100.00
14818;BME280;7500;57.698;11.986;2022-09-09T10:38:05;101456.03;;;17.42;100.00
14818;BME280;7500;57.698;11.986;2022-09-09T10:40:41;101469.72;;;17.38;100.00
14818;BME280;7500;57.698;11.986;2022-09-09T10:43:20;101472.78;;;17.32;100.00
14818;BME280;7500;57.698;11.986;2022-09-09T10:45:57;101467.94;;;17.24;100.00
14818;BME280;7500;57.698;11.986;2022-09-09T10:48:50;101465.75;;;17.17;100.00
14818;BME280;7500;57.698;11.986;2022-09-09T10:51:28;101471.97;;;17.17;100.00
14818;BME280;7500;57.698;11.986;2022-09-09T10:54:10;101473.13;;;17.13;100.00
14818;BME280;7500;57.698;11.986;2022-09-09T10:56:42;101479.22;;;17.15;100.00
14818;BME280;7500;57.698;11.986;2022-09-09T10:59:15;101479.53;;;17.11;100.00
14818;BME280;7500;57.698;11.986;2022-09-09T11:01:51;101482.50;;;17.06;100.00
14818;BME280;7500;57.698;11.986;2022-09-09T11:04:22;101480.38;;;17.11;100.00
14818;BME280;7500;57.698;11.986;2022-09-09T11:06:54;101498.31;;;17.09;100.00
14818;BME280;7500;57.698;11.986;2022-09-09T11:09:24;101490.41;;;17.08;100.00
14818;BME280;7500;57.698;11.986;2022-09-09T11:11:53;101497.00;;;17.02;100.00
14818;BME280;7500;57.698;11.986;2022-09-09T11:14:26;101497.19;;;16.99;100.00
14818;BME280;7500;57.698;11.986;2022-09-09T11:16:59;101500.19;;;16.95;100.00
14818;BME280;7500;57.698;11.986;2022-09-09T11:19:31;101582.50;;;16.87;100.00
14818;BME280;7500;57.698;11.986;2022-09-09T11:22:02;101531.44;;;16.93;100.00
14818;BME280;7500;57.698;11.986;2022-09-09T11:24:36;101527.38;;;16.88;100.00
14818;BME280;7500;57.698;11.986;2022-09-09T11:27:10;101526.59;;;16.86;100.00
14818;BME280;7500;57.698;11.986;2022-09-09T11:29:59;101534.22;;;16.78;100.00
14818;BME280;7500;57.698;11.986;2022-09-09T11:32:51;101533.19;;;16.80;100.00
14818;BME280;7500;57.698;11.986;2022-09-09T11:35:29;101530.16;;;16.72;100.00
14818;BME280;7500;57.698;11.986;2022-09-09T11:38:16;101535.78;;;16.68;100.00
14818;BME280;7500;57.698;11.986;2022-09-09T11:40:45;101529.13;;;16.61;100.00
14818;BME280;7500;57.698;11.986;2022-09-09T11:43:14;101555.69;;;16.62;100.00
14818;BME280;7500;57.698;11.986;2022-09-09T11:45:50;101546.94;;;16.60;100.00
14818;BME280;7500;57.698;11.986;2022-09-09T11:48:30;101554.34;;;16.55;100.00
14818;BME280;7500;57.698;11.986;2022-09-09T11:50:59;101711.59;;;16.57;100.00
14818;BME280;7500;57.698;11.986;2022-09-09T11:53:27;101639.66;;;16.55;100.00
14818;BME280;7500;57.698;11.986;2022-09-09T11:56:03;101582.72;;;16.56;100.00
14818;BME280;7500;57.698;11.986;2022-09-09T11:58:36;101578.09;;;16.60;100.00
14818;BME280;7500;57.698;11.986;2022-09-09T12:01:25;101567.63;;;16.57;100.00
14818;BME280;7500;57.698;11.986;2022-09-09T12:04:05;101679.66;;;16.55;100.00
14818;BME280;7500;57.698;11.986;2022-09-09T12:06:43;101647.19;;;16.49;100.00
14818;BME280;7500;57.698;11.986;2022-09-09T12:09:26;101605.78;;;16.57;100.00
14818;BME280;7500;57.698;11.986;2022-09-09T12:12:06;101592.06;;;16.63;100.00
14818;BME280;7500;57.698;11.986;2022-09-09T12:14:38;101580.19;;;16.55;100.00
14818;BME280;7500;57.698;11.986;2022-09-09T12:17:10;101576.75;;;16.53;100.00
14818;BME280;7500;57.698;11.986;2022-09-09T12:19:46;101573.78;;;16.57;100.00
14818;BME280;7500;57.698;11.986;2022-09-09T12:22:20;101568.00;;;16.51;100.00
14818;BME280;7500;57.698;11.986;2022-09-09T12:24:56;101572.06;;;16.56;100.00
14818;BME280;7500;57.698;11.986;2022-09-09T12:27:28;101564.56;;;16.63;100.00
14818;BME280;7500;57.698;11.986;2022-09-09T12:30:01;101565.50;;;16.62;100.00
14818;BME280;7500;57.698;11.986;2022-09-09T12:32:29;101562.53;;;16.66;100.00
14818;BME280;7500;57.698;11.986;2022-09-09T12:35:00;101566.69;;;16.84;100.00
14818;BME280;7500;57.698;11.986;2022-09-09T12:37:32;101565.41;;;16.77;100.00
14818;BME280;7500;57.698;11.986;2022-09-09T12:40:02;101566.25;;;16.78;100.00
14818;BME280;7500;57.698;11.986;2022-09-09T12:42:30;101568.53;;;16.84;100.00
14818;BME280;7500;57.698;11.986;2022-09-09T12:44:59;101564.34;;;16.80;100.00
14818;BME280;7500;57.698;11.986;2022-09-09T12:47:37;101556.25;;;16.81;100.00
14818;BME280;7500;57.698;11.986;2022-09-09T12:50:15;101556.13;;;16.83;100.00
14818;BME280;7500;57.698;11.986;2022-09-09T12:52:44;101555.75;;;16.89;100.00
14818;BME280;7500;57.698;11.986;2022-09-09T12:55:17;101544.31;;;16.87;100.00
14818;BME280;7500;57.698;11.986;2022-09-09T12:57:45;101549.25;;;16.93;100.00
14818;BME280;7500;57.698;11.986;2022-09-09T13:00:15;101544.69;;;16.95;100.00
14818;BME280;7500;57.698;11.986;2022-09-09T13:02:47;101548.31;;;16.94;100.00